Ana Sayfa
METAR-TAF:

METAR-TAF

Havaalanları :

Sisam, Yunanistan

Enlem: 37-42N, Boylam: 026-55E, yükseklik: 2 m

Güncel hava durumu gözlemi

Rapor saat 11:50 UTC de 33 dakika önce yapıldı.
Rüzgar güney/güneydoğudan 8 kt
Sıcaklık 32°C
Nem 59%
Basınç 1000 hPa
Görüş mesafesi 10 km veya daha fazla
1500 m altında bulut yok ve kümülonimbus yok

METAR: LGSM 061150Z 15008KT CAVOK 32/23 Q1000

Saat: 15:23 (12:23 UTC)

Tahmin

Rapor saat 11:00 UTC de 1 saat ve 23 dakika önce yapıldı.
Ayın 06'si saat 12 UTC'den ayın 06'si saat 21 UTC'ye kadar geçerli Tahmin
Rüzgar güney/güneydoğudan 10 kt
Görüş mesafesi 10 km veya daha fazla
2500 ft yükseklikte az bulutlu
Dönüşüyor
ayın 06'si saat 14 UTC'den ayın 06'si saat 16 UTC'ye kadar
Rüzgar batıdan 10 kt

TAF: LGSM 061100Z 0612/0621 15010KT 9999 FEW025 BECMG 0614/0616 26010KT

4.000'den fazla havaalanı için hava durumu gözlemleri ve tahminleri (METAR ve TAF raporları).

Kullanılabilir istasyonlar harita üzerinde sarı ve kırmızı noktalarla gösterilir.

İstasyonun adını görmek için fareyi noktanın üzerinde gezdirin.

Sonrasında hava gözlem ve tahminlerini görmek için tıklayın.

Haritayı değiştirmek için: yaklaştırmak için siyah artı işaretli yeşil düğmeye ve uzaklaştırmak için de eksi işaretli düğmeye hızla tıklayın; bitişik haritalar için yeşil okları kullanın.


METAR-TAF: